createdAt,value
2024-03-16T00:00:14.823Z,1005.85
2024-03-16T00:03:25.008Z,1005.87
2024-03-16T00:04:28.549Z,1005.85
2024-03-16T00:05:31.998Z,1005.85
2024-03-16T00:06:35.434Z,1005.85
2024-03-16T00:07:38.762Z,1005.89
2024-03-16T00:08:42.027Z,1005.85
2024-03-16T00:11:51.747Z,1005.87
2024-03-16T00:12:55.083Z,1005.91
2024-03-16T00:13:58.291Z,1005.91
2024-03-16T00:15:01.612Z,1005.89
2024-03-16T00:16:05.606Z,1005.87
2024-03-16T00:17:08.947Z,1005.93
2024-03-16T00:18:12.505Z,1005.93
2024-03-16T00:19:16.069Z,1005.95
2024-03-16T00:21:22.564Z,1005.91
2024-03-16T00:22:25.860Z,1005.93
2024-03-16T00:23:29.218Z,1005.95
2024-03-16T00:24:32.616Z,1005.95
2024-03-16T00:25:35.861Z,1005.97
2024-03-16T00:26:39.554Z,1005.97
2024-03-16T00:27:43.037Z,1006.01
2024-03-16T00:29:49.640Z,1006.06
2024-03-16T00:30:52.935Z,1006.06
2024-03-16T00:31:56.277Z,1006.04
2024-03-16T00:32:59.650Z,1006.04
2024-03-16T00:34:03.301Z,1006.06
2024-03-16T00:35:08.596Z,1006.06
2024-03-16T00:36:11.767Z,1006.1
2024-03-16T00:39:23.821Z,1006.1
2024-03-16T00:40:27.146Z,1006.1
2024-03-16T00:41:30.405Z,1006.08
2024-03-16T00:42:33.745Z,1006.1
2024-03-16T00:43:37.004Z,1006.08
2024-03-16T00:44:40.211Z,1006.08
2024-03-16T00:45:43.487Z,1006.06
2024-03-16T00:47:50.059Z,1006.08
2024-03-16T00:48:53.431Z,1006.03
2024-03-16T00:49:56.730Z,1006.04
2024-03-16T00:50:59.981Z,1006.04
2024-03-16T00:52:03.518Z,1006.01
2024-03-16T00:53:06.850Z,1006.03
2024-03-16T00:54:11.630Z,1006.04
2024-03-16T00:55:15.115Z,1006.03
2024-03-16T00:57:22.576Z,1006.04
2024-03-16T00:58:25.829Z,1006.01
2024-03-16T00:59:29.055Z,1006.06
2024-03-16T01:00:32.492Z,1006.06
2024-03-16T01:01:36.415Z,1006.06
2024-03-16T01:02:39.781Z,1006.06
2024-03-16T01:03:43.058Z,1006.08
2024-03-16T01:05:49.562Z,1006.06
2024-03-16T01:06:52.965Z,1006.08
2024-03-16T01:07:56.268Z,1006.06
2024-03-16T01:08:59.530Z,1006.08
2024-03-16T01:10:03.247Z,1006.08
2024-03-16T01:11:06.695Z,1006.06
2024-03-16T01:12:10.024Z,1006.06
2024-03-16T01:13:13.301Z,1006.03
2024-03-16T01:17:26.370Z,1006.08
2024-03-16T01:18:29.676Z,1006.04
2024-03-16T01:19:32.976Z,1006.04
2024-03-16T01:20:36.271Z,1006.06
2024-03-16T01:21:39.816Z,1006.04
2024-03-16T01:22:43.093Z,1006.08
2024-03-16T01:24:49.584Z,1006.1
2024-03-16T01:25:54.426Z,1006.1
2024-03-16T01:26:57.680Z,1006.14
2024-03-16T01:28:01.085Z,1006.12
2024-03-16T01:29:04.390Z,1006.14
2024-03-16T01:30:07.589Z,1006.12
2024-03-16T01:31:15.473Z,1006.08
2024-03-16T01:33:22.027Z,1006.16
2024-03-16T01:34:25.222Z,1006.14
2024-03-16T01:35:28.473Z,1006.18
2024-03-16T01:36:31.828Z,1006.18
2024-03-16T01:37:35.065Z,1006.18
2024-03-16T01:38:38.398Z,1006.16
2024-03-16T01:39:41.710Z,1006.18
2024-03-16T01:41:48.336Z,1006.16
2024-03-16T01:42:51.810Z,1006.18
2024-03-16T01:43:55.187Z,1006.14
2024-03-16T01:44:58.371Z,1006.16
2024-03-16T01:46:01.990Z,1006.14
2024-03-16T01:47:05.341Z,1006.16
2024-03-16T01:48:08.689Z,1006.18
2024-03-16T01:49:12.198Z,1006.16
2024-03-16T01:50:15.461Z,1006.2
2024-03-16T01:52:21.922Z,1006.16
2024-03-16T01:53:25.200Z,1006.16
2024-03-16T01:54:28.550Z,1006.14
2024-03-16T01:55:31.812Z,1006.12
2024-03-16T01:56:35.090Z,1006.1
2024-03-16T01:57:38.742Z,1006.14
2024-03-16T01:59:48.506Z,1006.12
2024-03-16T02:00:52.066Z,1006.14
2024-03-16T02:01:57.089Z,1006.14
2024-03-16T02:03:02.441Z,1006.12
2024-03-16T02:04:05.904Z,1006.1
2024-03-16T02:05:09.686Z,1006.14
2024-03-16T02:06:12.923Z,1006.12
2024-03-16T02:07:16.163Z,1006.14
2024-03-16T02:09:22.634Z,1006.16
2024-03-16T02:10:25.946Z,1006.18
2024-03-16T02:11:29.364Z,1006.14
2024-03-16T02:12:32.764Z,1006.18
2024-03-16T02:13:36.111Z,1006.16
2024-03-16T02:14:39.364Z,1006.16
2024-03-16T02:15:42.717Z,1006.2
2024-03-16T02:17:49.487Z,1006.22
2024-03-16T02:18:53.019Z,1006.22
2024-03-16T02:19:56.329Z,1006.24
2024-03-16T02:20:59.595Z,1006.26
2024-03-16T02:22:03.262Z,1006.28
2024-03-16T02:23:06.607Z,1006.3
2024-03-16T02:24:09.825Z,1006.32
2024-03-16T02:25:13.267Z,1006.32
2024-03-16T02:27:19.806Z,1006.32
2024-03-16T02:28:23.034Z,1006.32
2024-03-16T02:29:26.332Z,1006.36
2024-03-16T02:30:29.791Z,1006.34
2024-03-16T02:31:33.194Z,1006.36
2024-03-16T02:32:36.622Z,1006.36
2024-03-16T02:33:39.933Z,1006.38
2024-03-16T02:34:43.238Z,1006.4
2024-03-16T02:36:49.849Z,1006.34
2024-03-16T02:37:53.154Z,1006.36
2024-03-16T02:38:56.477Z,1006.38
2024-03-16T02:39:59.828Z,1006.36
2024-03-16T02:41:03.116Z,1006.38
2024-03-16T02:42:06.387Z,1006.36
2024-03-16T02:43:09.795Z,1006.38
2024-03-16T02:44:13.128Z,1006.42
2024-03-16T02:46:19.723Z,1006.42
2024-03-16T02:47:22.977Z,1006.4
2024-03-16T02:48:26.287Z,1006.44
2024-03-16T02:49:29.601Z,1006.4
2024-03-16T02:50:32.997Z,1006.34
2024-03-16T02:51:36.328Z,1006.34
2024-03-16T02:52:39.567Z,1006.36
2024-03-16T02:54:47.661Z,1006.42
2024-03-16T02:55:50.927Z,1006.42
2024-03-16T02:56:56.205Z,1006.44
2024-03-16T02:57:59.571Z,1006.48
2024-03-16T02:59:02.992Z,1006.5
2024-03-16T03:00:06.376Z,1006.5
2024-03-16T03:01:10.028Z,1006.55
2024-03-16T03:02:13.378Z,1006.55
2024-03-16T03:04:19.832Z,1006.55
2024-03-16T03:05:23.045Z,1006.59
2024-03-16T03:06:26.344Z,1006.57
2024-03-16T03:07:29.590Z,1006.59
2024-03-16T03:08:32.836Z,1006.59
2024-03-16T03:09:36.148Z,1006.61
2024-03-16T03:10:39.566Z,1006.61
2024-03-16T03:11:43.038Z,1006.63
2024-03-16T03:14:53.116Z,1006.63
2024-03-16T03:15:56.816Z,1006.65
2024-03-16T03:17:00.102Z,1006.63
2024-03-16T03:18:04.442Z,1006.67
2024-03-16T03:19:07.978Z,1006.69
2024-03-16T03:20:11.917Z,1006.71
2024-03-16T03:21:15.194Z,1006.71
2024-03-16T03:23:23.006Z,1006.69
2024-03-16T03:24:26.385Z,1006.69
2024-03-16T03:25:29.730Z,1006.67
2024-03-16T03:26:33.842Z,1006.67
2024-03-16T03:27:37.466Z,1006.65
2024-03-16T03:28:40.816Z,1006.67
2024-03-16T03:30:47.439Z,1006.69
2024-03-16T03:31:50.718Z,1006.69
2024-03-16T03:32:54.076Z,1006.71
2024-03-16T03:33:57.470Z,1006.71
2024-03-16T03:35:00.846Z,1006.71
2024-03-16T03:36:04.181Z,1006.71
2024-03-16T03:37:07.730Z,1006.73
2024-03-16T03:38:11.019Z,1006.69
2024-03-16T03:39:14.301Z,1006.73
2024-03-16T03:41:20.991Z,1006.81
2024-03-16T03:42:24.208Z,1006.79
2024-03-16T03:43:27.571Z,1006.81
2024-03-16T03:44:30.852Z,1006.79
2024-03-16T03:45:34.194Z,1006.79
2024-03-16T03:46:37.436Z,1006.77
2024-03-16T03:47:40.769Z,1006.81
2024-03-16T03:49:47.419Z,1006.79
2024-03-16T03:50:51.745Z,1006.77
2024-03-16T03:51:56.235Z,1006.79
2024-03-16T03:52:59.601Z,1006.81
2024-03-16T03:54:03.855Z,1006.79
2024-03-16T03:55:07.375Z,1006.79
2024-03-16T03:56:10.709Z,1006.77
2024-03-16T03:57:14.039Z,1006.81
2024-03-16T03:59:20.722Z,1006.87
2024-03-16T04:00:23.999Z,1006.89
2024-03-16T04:01:27.549Z,1006.89
2024-03-16T04:02:30.937Z,1006.87
2024-03-16T04:03:34.331Z,1006.91
2024-03-16T04:04:37.597Z,1006.91
2024-03-16T04:05:40.757Z,1006.87
2024-03-16T04:07:47.183Z,1006.87
2024-03-16T04:08:52.438Z,1006.85
2024-03-16T04:09:55.721Z,1006.87
2024-03-16T04:10:59.201Z,1006.93
2024-03-16T04:12:02.514Z,1006.91
2024-03-16T04:13:06.302Z,1006.89
2024-03-16T04:14:09.649Z,1006.87
2024-03-16T04:15:12.938Z,1006.87
2024-03-16T04:17:19.743Z,1006.89
2024-03-16T04:18:23.102Z,1006.93
2024-03-16T04:19:26.510Z,1006.91
2024-03-16T04:20:29.769Z,1006.93
2024-03-16T04:21:33.136Z,1006.93
2024-03-16T04:22:36.420Z,1006.97
2024-03-16T04:23:41.141Z,1006.93
2024-03-16T04:26:50.925Z,1007.02
2024-03-16T04:27:54.252Z,1007
2024-03-16T04:28:57.517Z,1007.04
2024-03-16T04:30:00.939Z,1007
2024-03-16T04:31:04.464Z,1007.02
2024-03-16T04:32:07.777Z,1007.04
2024-03-16T04:33:11.215Z,1007.08
2024-03-16T04:34:14.665Z,1007.04
2024-03-16T04:37:24.480Z,1007.04
2024-03-16T04:38:27.865Z,1007.06
2024-03-16T04:39:31.312Z,1007.08
2024-03-16T04:40:34.588Z,1007.08
2024-03-16T04:41:37.789Z,1007.06
2024-03-16T04:42:41.188Z,1007.08
2024-03-16T04:44:47.720Z,1007.12
2024-03-16T04:45:51.230Z,1007.12
2024-03-16T04:46:56.075Z,1007.14
2024-03-16T04:48:00.557Z,1007.16
2024-03-16T04:49:04.213Z,1007.2
2024-03-16T04:50:07.609Z,1007.22
2024-03-16T04:51:10.858Z,1007.22
2024-03-16T04:52:14.288Z,1007.2
2024-03-16T04:54:20.732Z,1007.22
2024-03-16T04:55:23.968Z,1007.28
2024-03-16T04:56:27.179Z,1007.3
2024-03-16T04:57:30.754Z,1007.26
2024-03-16T04:58:34.141Z,1007.32
2024-03-16T04:59:37.332Z,1007.34
2024-03-16T05:00:40.889Z,1007.34
2024-03-16T05:02:47.675Z,1007.36
2024-03-16T05:03:51.023Z,1007.32
2024-03-16T05:04:59.946Z,1007.36
2024-03-16T05:06:03.144Z,1007.38
2024-03-16T05:07:07.174Z,1007.36
2024-03-16T05:08:12.120Z,1007.38
2024-03-16T05:10:18.838Z,1007.38
2024-03-16T05:11:22.255Z,1007.38
2024-03-16T05:12:27.644Z,1007.38
2024-03-16T05:13:35.184Z,1007.36
2024-03-16T05:15:47.127Z,1007.38
2024-03-16T05:16:50.424Z,1007.4
2024-03-16T05:17:53.825Z,1007.36
2024-03-16T05:18:57.278Z,1007.36
2024-03-16T05:20:00.682Z,1007.42
2024-03-16T05:21:04.025Z,1007.45
2024-03-16T05:22:07.564Z,1007.47
2024-03-16T05:23:10.901Z,1007.49
2024-03-16T05:24:14.227Z,1007.49
2024-03-16T05:26:21.445Z,1007.49
2024-03-16T05:27:24.699Z,1007.51
2024-03-16T05:28:28.657Z,1007.49
2024-03-16T05:29:31.909Z,1007.53
2024-03-16T05:30:35.307Z,1007.51
2024-03-16T05:31:38.630Z,1007.51
2024-03-16T05:32:42.046Z,1007.53
2024-03-16T05:34:48.710Z,1007.55
2024-03-16T05:35:51.982Z,1007.59
2024-03-16T05:36:55.599Z,1007.61
2024-03-16T05:37:58.919Z,1007.65
2024-03-16T05:39:02.120Z,1007.67
2024-03-16T05:40:05.517Z,1007.67
2024-03-16T05:41:08.837Z,1007.71
2024-03-16T05:42:13.119Z,1007.71
2024-03-16T05:44:19.752Z,1007.77
2024-03-16T05:45:23.106Z,1007.77
2024-03-16T05:46:26.399Z,1007.77
2024-03-16T05:47:29.754Z,1007.77
2024-03-16T05:48:33.119Z,1007.81
2024-03-16T05:49:36.483Z,1007.81
2024-03-16T05:50:39.812Z,1007.85
2024-03-16T05:53:49.545Z,1007.89
2024-03-16T05:54:53.029Z,1007.91
2024-03-16T05:55:56.341Z,1007.99
2024-03-16T05:56:59.601Z,1008.03
2024-03-16T05:58:03.004Z,1008.03
2024-03-16T05:59:06.321Z,1008.03
2024-03-16T06:00:09.543Z,1008.03
2024-03-16T06:01:13.121Z,1008.07
2024-03-16T06:03:19.594Z,1008.13
2024-03-16T06:04:22.870Z,1008.15
2024-03-16T06:05:26.100Z,1008.19
2024-03-16T06:06:29.598Z,1008.19
2024-03-16T06:07:32.984Z,1008.23
2024-03-16T06:08:36.216Z,1008.25
2024-03-16T06:09:39.666Z,1008.29
2024-03-16T06:11:46.711Z,1008.33
2024-03-16T06:12:50.105Z,1008.34
2024-03-16T06:13:53.407Z,1008.38
2024-03-16T06:14:56.728Z,1008.44
2024-03-16T06:16:00.115Z,1008.42
2024-03-16T06:17:03.434Z,1008.42
2024-03-16T06:18:06.903Z,1008.44
2024-03-16T06:19:10.463Z,1008.44
2024-03-16T06:20:13.778Z,1008.46
2024-03-16T06:22:20.248Z,1008.48
2024-03-16T06:23:23.622Z,1008.5
2024-03-16T06:24:26.904Z,1008.52
2024-03-16T06:25:30.152Z,1008.56
2024-03-16T06:26:33.437Z,1008.58
2024-03-16T06:27:36.807Z,1008.6
2024-03-16T06:28:40.140Z,1008.6
2024-03-16T06:30:46.614Z,1008.62
2024-03-16T06:31:49.884Z,1008.66
2024-03-16T06:32:53.274Z,1008.66
2024-03-16T06:33:56.670Z,1008.68
2024-03-16T06:34:59.936Z,1008.7
2024-03-16T06:36:03.133Z,1008.72
2024-03-16T06:37:06.465Z,1008.74
2024-03-16T06:38:11.749Z,1008.7
2024-03-16T06:40:18.372Z,1008.78
2024-03-16T06:41:21.691Z,1008.8
2024-03-16T06:42:25.001Z,1008.8
2024-03-16T06:43:28.238Z,1008.85
2024-03-16T06:44:31.474Z,1008.87
2024-03-16T06:45:34.774Z,1008.87
2024-03-16T06:46:38.083Z,1008.84
2024-03-16T06:47:41.447Z,1008.89
2024-03-16T06:49:48.031Z,1008.99
2024-03-16T06:50:51.332Z,1008.97
2024-03-16T06:51:54.675Z,1009.23
2024-03-16T06:52:58.024Z,1009.27
2024-03-16T06:54:01.331Z,1009.25
2024-03-16T06:55:04.643Z,1009.31
2024-03-16T06:56:07.950Z,1009.36
2024-03-16T06:57:11.167Z,1009.4
2024-03-16T06:59:17.777Z,1009.5
2024-03-16T07:00:20.999Z,1009.5
2024-03-16T07:01:24.574Z,1009.52
2024-03-16T07:02:27.925Z,1009.58
2024-03-16T07:03:31.219Z,1009.62
2024-03-16T07:04:34.497Z,1009.68
2024-03-16T07:05:37.742Z,1009.64
2024-03-16T07:06:41.152Z,1009.75
2024-03-16T07:09:51.324Z,1009.77
2024-03-16T07:10:54.805Z,1009.83
2024-03-16T07:11:58.037Z,1009.87
2024-03-16T07:13:01.441Z,1009.89
2024-03-16T07:14:04.758Z,1009.87
2024-03-16T07:15:08.079Z,1009.95
2024-03-16T07:16:11.627Z,1009.97
2024-03-16T07:19:21.492Z,1010.05
2024-03-16T07:20:24.772Z,1010.03
2024-03-16T07:21:30.494Z,1010.11
2024-03-16T07:22:33.667Z,1010.15
2024-03-16T07:23:36.856Z,1010.17
2024-03-16T07:24:40.171Z,1010.21
2024-03-16T07:25:43.444Z,1010.28
2024-03-16T07:26:46.725Z,1010.28
2024-03-16T07:27:50.250Z,1010.34
2024-03-16T07:28:53.630Z,1010.38
2024-03-16T07:29:56.938Z,1010.42
2024-03-16T07:31:00.322Z,1010.42
2024-03-16T07:32:03.646Z,1010.48
2024-03-16T07:33:07.080Z,1010.56
2024-03-16T07:34:10.521Z,1010.46
2024-03-16T07:35:13.761Z,1010.46
2024-03-16T07:36:16.958Z,1010.46
2024-03-16T07:37:21.903Z,1010.58
2024-03-16T07:38:25.266Z,1010.58
2024-03-16T07:39:28.781Z,1010.66
2024-03-16T07:40:32.082Z,1010.64
2024-03-16T07:41:35.312Z,1010.7
2024-03-16T07:42:38.675Z,1010.7
2024-03-16T07:43:41.887Z,1010.8
2024-03-16T07:44:46.588Z,1010.78
2024-03-16T07:45:49.957Z,1010.78
2024-03-16T07:46:53.187Z,1010.84
2024-03-16T07:47:56.742Z,1010.82
2024-03-16T07:49:00.125Z,1010.9
2024-03-16T07:50:03.412Z,1010.92
2024-03-16T07:51:06.682Z,1010.94
2024-03-16T07:52:10.304Z,1010.96
2024-03-16T07:53:13.520Z,1011.02
2024-03-16T07:55:20.176Z,1011.04
2024-03-16T07:56:23.399Z,1011.07
2024-03-16T07:57:26.758Z,1011.11
2024-03-16T07:58:30.060Z,1011.09
2024-03-16T07:59:33.339Z,1011.13
2024-03-16T08:00:37.209Z,1011.11
2024-03-16T08:01:41.040Z,1011.15
2024-03-16T08:03:47.884Z,1011.21
2024-03-16T08:04:51.168Z,1011.23
2024-03-16T08:05:54.449Z,1011.27
2024-03-16T08:06:57.774Z,1011.31
2024-03-16T08:08:01.390Z,1011.35
2024-03-16T08:09:04.657Z,1011.31
2024-03-16T08:10:10.039Z,1011.35
2024-03-16T08:11:13.400Z,1011.41
2024-03-16T08:14:26.571Z,1011.47
2024-03-16T08:15:29.845Z,1011.45
2024-03-16T08:16:33.081Z,1011.52
2024-03-16T08:17:36.624Z,1011.54
2024-03-16T08:18:40.095Z,1011.52
2024-03-16T08:20:46.558Z,1011.58
2024-03-16T08:21:49.942Z,1011.62
2024-03-16T08:22:53.192Z,1011.64
2024-03-16T08:23:56.472Z,1011.6
2024-03-16T08:24:59.800Z,1011.66
2024-03-16T08:26:04.626Z,1011.68
2024-03-16T08:27:07.828Z,1011.7
2024-03-16T08:28:11.089Z,1011.7
2024-03-16T08:30:17.658Z,1011.7
2024-03-16T08:31:21.226Z,1011.76
2024-03-16T08:32:24.637Z,1011.76
2024-03-16T08:33:28.069Z,1011.78
2024-03-16T08:34:31.558Z,1011.8
2024-03-16T08:35:34.818Z,1011.84
2024-03-16T08:36:38.177Z,1011.9
2024-03-16T08:37:41.505Z,1011.92
2024-03-16T08:39:48.112Z,1011.92
2024-03-16T08:40:51.538Z,1011.96
2024-03-16T08:41:56.982Z,1011.97
2024-03-16T08:43:00.374Z,1012.03
2024-03-16T08:44:03.801Z,1012.01
2024-03-16T08:45:07.172Z,1012.03
2024-03-16T08:46:10.625Z,1012.09
2024-03-16T08:48:17.483Z,1012.09
2024-03-16T08:49:21.169Z,1012.13
2024-03-16T08:50:24.566Z,1012.11
2024-03-16T08:51:28.821Z,1012.11
2024-03-16T08:52:39.002Z,1012.13
2024-03-16T08:55:48.953Z,1012.25
2024-03-16T08:56:52.220Z,1012.31
2024-03-16T08:57:55.613Z,1012.31
2024-03-16T08:58:58.857Z,1012.35
2024-03-16T09:00:02.165Z,1012.41
2024-03-16T09:01:05.789Z,1012.47
2024-03-16T09:02:09.420Z,1012.37
2024-03-16T09:03:12.686Z,1012.45
2024-03-16T09:05:19.263Z,1012.48
2024-03-16T09:06:22.724Z,1012.52
2024-03-16T09:07:25.947Z,1012.52
2024-03-16T09:08:29.142Z,1012.48
2024-03-16T09:09:32.506Z,1012.52
2024-03-16T09:10:35.809Z,1012.52
2024-03-16T09:11:39.289Z,1012.54
2024-03-16T09:13:45.971Z,1012.56
2024-03-16T09:14:49.284Z,1012.58
2024-03-16T09:15:52.707Z,1012.6
2024-03-16T09:16:55.979Z,1012.56
2024-03-16T09:17:59.418Z,1012.54
2024-03-16T09:19:02.896Z,1012.62
2024-03-16T09:20:06.161Z,1012.62
2024-03-16T09:21:09.405Z,1012.64
2024-03-16T09:22:12.922Z,1012.72
2024-03-16T09:24:19.387Z,1012.74
2024-03-16T09:25:24.378Z,1012.74
2024-03-16T09:26:27.703Z,1012.82
2024-03-16T09:27:31.003Z,1012.82
2024-03-16T09:28:34.402Z,1012.76
2024-03-16T09:29:39.805Z,1012.74
2024-03-16T09:31:48.200Z,1012.8
2024-03-16T09:32:51.490Z,1012.78
2024-03-16T09:33:54.865Z,1012.86
2024-03-16T09:34:58.137Z,1012.82
2024-03-16T09:36:01.415Z,1012.82
2024-03-16T09:37:04.856Z,1012.84
2024-03-16T09:38:08.140Z,1012.84
2024-03-16T09:39:11.408Z,1012.86
2024-03-16T09:41:18.413Z,1012.9
2024-03-16T09:42:21.685Z,1012.9
2024-03-16T09:43:25.175Z,1012.9
2024-03-16T09:44:28.434Z,1012.9
2024-03-16T09:45:33.283Z,1012.9
2024-03-16T09:46:36.555Z,1012.94
2024-03-16T09:47:39.933Z,1012.92
2024-03-16T09:49:49.488Z,1012.98
2024-03-16T09:50:52.708Z,1013.05
2024-03-16T09:51:56.048Z,1013.14
2024-03-16T09:52:59.287Z,1013.03
2024-03-16T09:54:02.522Z,1013.05
2024-03-16T09:55:06.112Z,1013.16
2024-03-16T09:56:09.459Z,1013.05
2024-03-16T09:57:12.671Z,1013.14
2024-03-16T09:59:31.505Z,1013.18
2024-03-16T10:00:34.746Z,1013.24
2024-03-16T10:01:39.939Z,1013.26
2024-03-16T10:03:46.458Z,1013.26
2024-03-16T10:04:49.710Z,1013.26
2024-03-16T10:05:53.006Z,1013.3
2024-03-16T10:06:58.371Z,1013.34
2024-03-16T10:08:01.555Z,1013.36
2024-03-16T10:09:04.766Z,1013.41
2024-03-16T10:10:08.251Z,1013.39
2024-03-16T10:11:11.918Z,1013.41
2024-03-16T10:13:18.408Z,1013.41
2024-03-16T10:14:21.664Z,1013.37
2024-03-16T10:15:26.864Z,1013.37
2024-03-16T10:16:32.143Z,1013.43
2024-03-16T10:17:35.315Z,1013.43
2024-03-16T10:18:40.048Z,1013.43
2024-03-16T10:20:46.534Z,1013.47
2024-03-16T10:21:51.912Z,1013.49
2024-03-16T10:22:55.132Z,1013.51
2024-03-16T10:23:58.312Z,1013.55
2024-03-16T10:25:07.904Z,1013.53
2024-03-16T10:26:11.220Z,1013.63
2024-03-16T10:27:14.484Z,1013.63
2024-03-16T10:28:19.736Z,1013.63
2024-03-16T10:29:24.516Z,1013.69
2024-03-16T10:30:27.729Z,1013.73
2024-03-16T10:31:30.998Z,1013.71
2024-03-16T10:32:34.281Z,1013.79
2024-03-16T10:33:37.617Z,1013.79
2024-03-16T10:34:40.913Z,1013.81
2024-03-16T10:35:44.195Z,1013.83
2024-03-16T10:36:47.545Z,1013.86
2024-03-16T10:37:52.916Z,1013.9
2024-03-16T10:38:57.559Z,1013.94
2024-03-16T10:40:00.903Z,1013.94
2024-03-16T10:41:04.220Z,1014
2024-03-16T10:42:07.427Z,1014.02
2024-03-16T10:43:10.692Z,1014.08
2024-03-16T10:44:13.902Z,1014.06
2024-03-16T10:45:17.166Z,1014.1
2024-03-16T10:46:20.435Z,1014.08
2024-03-16T10:47:23.694Z,1014.1
2024-03-16T10:48:26.918Z,1014.16
2024-03-16T10:49:32.163Z,1014.2
2024-03-16T10:50:35.588Z,1014.24
2024-03-16T10:53:53.126Z,1014.24
2024-03-16T10:54:56.299Z,1014.26
2024-03-16T10:55:59.599Z,1014.31
2024-03-16T10:57:02.866Z,1014.28
2024-03-16T10:58:06.174Z,1014.3
2024-03-16T10:59:10.932Z,1014.37
2024-03-16T11:01:17.372Z,1014.45
2024-03-16T11:02:20.610Z,1014.45
2024-03-16T11:03:23.842Z,1014.51
2024-03-16T11:04:27.192Z,1014.55
2024-03-16T11:05:31.400Z,1014.57
2024-03-16T11:06:34.702Z,1014.59
2024-03-16T11:07:37.948Z,1014.61
2024-03-16T11:09:47.033Z,1014.65
2024-03-16T11:10:50.425Z,1014.65
2024-03-16T11:11:53.702Z,1014.65
2024-03-16T11:12:57.099Z,1014.63
2024-03-16T11:14:01.380Z,1014.65
2024-03-16T11:15:04.628Z,1014.63
2024-03-16T11:16:10.022Z,1014.63
2024-03-16T11:18:16.460Z,1014.67
2024-03-16T11:19:21.238Z,1014.71
2024-03-16T11:20:24.525Z,1014.71
2024-03-16T11:21:28.733Z,1014.69
2024-03-16T11:22:31.929Z,1014.73
2024-03-16T11:23:35.213Z,1014.71
2024-03-16T11:24:38.715Z,1014.77
2024-03-16T11:26:47.219Z,1014.78
2024-03-16T11:27:50.494Z,1014.8
2024-03-16T11:28:53.688Z,1014.84
2024-03-16T11:29:57.057Z,1014.84
2024-03-16T11:31:00.265Z,1014.88
2024-03-16T11:32:03.548Z,1014.84
2024-03-16T11:33:06.705Z,1014.84
2024-03-16T11:34:09.938Z,1014.86
2024-03-16T11:36:16.369Z,1014.88
2024-03-16T11:37:19.630Z,1014.88
2024-03-16T11:38:22.907Z,1014.98
2024-03-16T11:39:26.211Z,1014.96
2024-03-16T11:40:29.488Z,1015
2024-03-16T11:41:32.769Z,1015
2024-03-16T11:42:36.087Z,1015.04
2024-03-16T11:43:39.419Z,1015.06
2024-03-16T11:45:45.849Z,1015.18
2024-03-16T11:46:49.072Z,1015.16
2024-03-16T11:47:52.275Z,1015.2
2024-03-16T11:48:55.478Z,1015.24
2024-03-16T11:49:58.748Z,1015.24
2024-03-16T11:51:01.994Z,1015.25
2024-03-16T11:52:06.259Z,1015.25
2024-03-16T11:53:09.480Z,1015.27
2024-03-16T11:55:15.859Z,1015.33
2024-03-16T11:56:20.782Z,1015.35
2024-03-16T11:57:24.049Z,1015.35
2024-03-16T11:58:27.286Z,1015.35
2024-03-16T11:59:30.567Z,1015.33
2024-03-16T12:00:33.903Z,1015.39
2024-03-16T12:01:37.387Z,1015.37
2024-03-16T12:05:52.224Z,1015.37
2024-03-16T12:06:55.368Z,1015.41
2024-03-16T12:07:58.628Z,1015.39
2024-03-16T12:09:01.842Z,1015.45
2024-03-16T12:10:05.098Z,1015.39
2024-03-16T12:11:08.532Z,1015.43
2024-03-16T12:15:36.201Z,1015.45
2024-03-16T12:17:45.961Z,1015.47
2024-03-16T12:18:49.126Z,1015.47
2024-03-16T12:19:52.354Z,1015.49
2024-03-16T12:20:55.581Z,1015.51
2024-03-16T12:21:58.815Z,1015.47
2024-03-16T12:23:02.053Z,1015.47
2024-03-16T12:24:05.293Z,1015.49
2024-03-16T12:25:08.561Z,1015.45
2024-03-16T12:28:18.676Z,1015.51
2024-03-16T12:29:21.907Z,1015.53
2024-03-16T12:30:25.080Z,1015.55
2024-03-16T12:31:28.394Z,1015.59
2024-03-16T12:32:31.703Z,1015.61
2024-03-16T12:33:35.087Z,1015.61
2024-03-16T12:34:38.731Z,1015.63
2024-03-16T12:36:47.083Z,1015.55
2024-03-16T12:37:50.319Z,1015.53
2024-03-16T12:38:53.538Z,1015.53
2024-03-16T12:39:56.818Z,1015.51
2024-03-16T12:41:00.087Z,1015.51
2024-03-16T12:42:03.398Z,1015.53
2024-03-16T12:43:06.660Z,1015.51
2024-03-16T12:44:10.986Z,1015.57
2024-03-16T12:46:17.479Z,1015.57
2024-03-16T12:47:20.700Z,1015.59
2024-03-16T12:48:25.998Z,1015.59
2024-03-16T12:49:29.118Z,1015.63
2024-03-16T12:50:32.295Z,1015.63
2024-03-16T12:51:35.642Z,1015.61
2024-03-16T12:52:38.896Z,1015.61
2024-03-16T12:56:53.549Z,1015.71
2024-03-16T12:57:56.834Z,1015.75
2024-03-16T12:59:00.127Z,1015.73
2024-03-16T13:00:03.435Z,1015.77
2024-03-16T13:01:07.179Z,1015.75
2024-03-16T13:02:10.744Z,1015.79
2024-03-16T13:07:31.158Z,1015.75
2024-03-16T13:08:34.479Z,1015.75
2024-03-16T13:09:37.922Z,1015.77
2024-03-16T13:11:44.354Z,1015.77
2024-03-16T13:12:47.722Z,1015.75
2024-03-16T13:13:50.998Z,1015.73
2024-03-16T13:14:54.270Z,1015.75
2024-03-16T13:15:57.701Z,1015.77
2024-03-16T13:17:00.960Z,1015.75
2024-03-16T13:18:04.331Z,1015.77
2024-03-16T13:19:07.587Z,1015.79
2024-03-16T13:20:10.919Z,1015.81
2024-03-16T13:23:25.030Z,1015.85
2024-03-16T13:24:30.271Z,1015.83
2024-03-16T13:25:33.459Z,1015.89
2024-03-16T13:26:36.831Z,1015.91
2024-03-16T13:28:45.353Z,1015.91
2024-03-16T13:29:48.479Z,1015.97
2024-03-16T13:30:51.775Z,1015.93
2024-03-16T13:31:55.078Z,1015.95
2024-03-16T13:32:58.395Z,1015.95
2024-03-16T13:34:01.760Z,1015.91
2024-03-16T13:35:05.027Z,1015.89
2024-03-16T13:36:08.346Z,1015.89
2024-03-16T13:40:22.076Z,1015.93
2024-03-16T13:41:25.301Z,1015.95
2024-03-16T13:42:28.658Z,1015.99
2024-03-16T13:43:33.417Z,1015.99
2024-03-16T13:44:36.678Z,1016.01
2024-03-16T13:47:47.801Z,1016.05
2024-03-16T13:48:51.104Z,1016.05
2024-03-16T13:49:54.416Z,1016.09
2024-03-16T13:51:13.292Z,1016.09
2024-03-16T13:53:18.747Z,1016.11
2024-03-16T13:54:22.012Z,1016.13
2024-03-16T13:55:27.411Z,1016.13
2024-03-16T13:56:30.569Z,1016.16
2024-03-16T13:57:33.812Z,1016.18
2024-03-16T13:58:37.083Z,1016.2
2024-03-16T14:00:46.172Z,1016.18
2024-03-16T14:01:49.466Z,1016.18
2024-03-16T14:02:52.853Z,1016.18
2024-03-16T14:03:56.131Z,1016.18
2024-03-16T14:05:03.634Z,1016.16
2024-03-16T14:06:06.903Z,1016.16
2024-03-16T14:07:10.194Z,1016.14
2024-03-16T14:11:25.236Z,1016.22
2024-03-16T14:12:28.574Z,1016.24
2024-03-16T14:13:31.856Z,1016.22
2024-03-16T14:14:35.109Z,1016.22
2024-03-16T14:15:38.325Z,1016.22
2024-03-16T14:17:44.890Z,1016.22
2024-03-16T14:18:48.188Z,1016.22
2024-03-16T14:19:54.153Z,1016.22
2024-03-16T14:20:59.385Z,1016.18
2024-03-16T14:22:02.573Z,1016.2
2024-03-16T14:23:07.396Z,1016.22
2024-03-16T14:24:10.628Z,1016.2
2024-03-16T14:27:22.309Z,1016.22
2024-03-16T14:28:25.589Z,1016.26
2024-03-16T14:29:29.019Z,1016.26
2024-03-16T14:30:32.504Z,1016.28
2024-03-16T14:31:35.754Z,1016.3
2024-03-16T14:33:45.165Z,1016.34
2024-03-16T14:34:48.523Z,1016.38
2024-03-16T14:35:51.858Z,1016.38
2024-03-16T14:36:55.168Z,1016.4
2024-03-16T14:37:58.459Z,1016.42
2024-03-16T14:39:01.688Z,1016.44
2024-03-16T14:40:05.401Z,1016.44
2024-03-16T14:41:08.681Z,1016.46
2024-03-16T14:43:15.123Z,1016.5
2024-03-16T14:44:20.496Z,1016.52
2024-03-16T14:45:31.744Z,1016.52
2024-03-16T14:46:36.361Z,1016.48
2024-03-16T14:48:42.829Z,1016.48
2024-03-16T14:49:46.158Z,1016.46
2024-03-16T14:50:49.453Z,1016.52
2024-03-16T14:51:52.868Z,1016.52
2024-03-16T14:52:56.103Z,1016.5
2024-03-16T14:53:59.436Z,1016.52
2024-03-16T14:55:02.747Z,1016.52
2024-03-16T14:56:06.051Z,1016.56
2024-03-16T14:59:17.851Z,1016.52
2024-03-16T15:00:23.105Z,1016.54
2024-03-16T15:01:26.292Z,1016.54
2024-03-16T15:02:35.524Z,1016.56
2024-03-16T15:03:38.611Z,1016.56
2024-03-16T15:05:45.117Z,1016.6
2024-03-16T15:06:48.522Z,1016.6
2024-03-16T15:07:51.851Z,1016.6
2024-03-16T15:08:55.084Z,1016.58
2024-03-16T15:09:58.407Z,1016.62